Time;durP1;ratioP1;P1;durP2;ratioP2;P2;SDS_P1;SDS_P2;PMS_P1;PMS_P2;Temp;Humidity;BMP_temperature;BMP_pressure;BME280_temperature;BME280_humidity;BME280_pressure;Samples;Min_cycle;Max_cycle;Signal;HPM_P1;HPM_P2
2022/06/06 00:00:03;;;;;;;1999.90;999.90;;;17.10;99.90;;;;;;4971547;28;20026;-77
2022/06/06 00:02:30;;;;;;;1999.90;999.90;;;17.10;99.90;;;;;;4959400;28;20029;-76
2022/06/06 00:04:57;;;;;;;1999.90;999.90;;;17.10;99.90;;;;;;4977047;28;20031;-77
2022/06/06 00:07:24;;;;;;;1999.90;999.90;;;17.10;99.90;;;;;;4976842;28;20031;-76
2022/06/06 00:09:50;;;;;;;1999.90;999.90;;;17.10;99.90;;;;;;4976494;28;20042;-77
2022/06/06 00:12:16;;;;;;;1999.90;999.90;;;17.10;99.90;;;;;;4977015;28;20387;-77
2022/06/06 00:14:43;;;;;;;1999.90;999.90;;;17.10;99.90;;;;;;4968837;28;20031;-76
2022/06/06 00:17:08;;;;;;;1999.90;999.90;;;17.10;99.90;;;;;;4967657;28;20102;-77
2022/06/06 00:19:34;;;;;;;1999.90;999.90;;;17.10;99.90;;;;;;4972603;28;20110;-76
2022/06/06 00:22:00;;;;;;;1999.90;999.90;;;17.10;99.90;;;;;;4967630;28;20034;-77
2022/06/06 00:24:26;;;;;;;1999.90;999.90;;;17.10;99.90;;;;;;4962046;28;20051;-76
2022/06/06 00:26:52;;;;;;;1999.90;999.90;;;17.20;99.90;;;;;;4967986;28;20031;-77
2022/06/06 00:29:19;;;;;;;1999.90;999.90;;;17.20;99.90;;;;;;4975316;28;20109;-76
2022/06/06 00:37:20;;;;;;;1999.90;999.90;;;17.10;99.90;;;;;;4972801;28;20030;-76
2022/06/06 00:39:46;;;;;;;1999.90;999.90;;;17.10;99.90;;;;;;4959097;28;20402;-77
2022/06/06 00:42:24;;;;;;;1999.90;999.90;;;17.00;99.90;;;;;;4973820;28;20041;-77
2022/06/06 00:45:28;;;;;;;1999.90;999.90;;;17.00;99.90;;;;;;4962382;28;20023;-77
2022/06/06 00:48:08;;;;;;;1999.90;999.90;;;16.90;99.90;;;;;;4964420;28;20031;-77
2022/06/06 00:50:43;;;;;;;1999.90;999.90;;;16.90;99.90;;;;;;4975770;28;20023;-76
2022/06/06 00:53:10;;;;;;;1999.90;999.90;;;16.90;99.90;;;;;;4958037;28;20117;-77
2022/06/06 00:55:41;;;;;;;1999.90;999.90;;;16.90;99.90;;;;;;4976144;28;20117;-77
2022/06/06 00:58:12;;;;;;;1999.90;999.90;;;16.90;99.90;;;;;;4967712;28;20372;-77
2022/06/06 01:00:39;;;;;;;1999.90;999.90;;;16.90;99.90;;;;;;4975827;28;20117;-73
2022/06/06 01:03:07;;;;;;;1999.90;999.90;;;16.80;99.90;;;;;;4975824;28;20034;-77
2022/06/06 01:05:35;;;;;;;1999.90;999.90;;;16.80;99.90;;;;;;4975711;28;20019;-76
2022/06/06 01:08:01;;;;;;;1999.90;999.90;;;16.80;99.90;;;;;;4966829;28;20035;-77
2022/06/06 01:10:27;;;;;;;1999.90;999.90;;;16.80;99.90;;;;;;4975839;28;20030;-77
2022/06/06 01:12:55;;;;;;;1999.90;999.90;;;16.80;99.90;;;;;;4968956;28;20023;-77
2022/06/06 01:15:24;;;;;;;1999.90;999.90;;;16.80;99.90;;;;;;4969858;28;20037;-77
2022/06/06 01:18:08;;;;;;;1999.90;999.90;;;16.80;99.90;;;;;;4954191;29;20020;-77
2022/06/06 01:21:25;;;;;;;1999.90;999.90;;;16.80;99.90;;;;;;4968647;28;20494;-76
2022/06/06 01:24:16;;;;;;;1999.90;999.90;;;16.80;99.90;;;;;;4958139;28;20050;-76
2022/06/06 01:26:47;;;;;;;1999.90;999.90;;;16.70;99.90;;;;;;4956713;28;20027;-77
2022/06/06 01:29:20;;;;;;;1999.90;999.90;;;16.70;99.90;;;;;;4975133;28;20030;-77
2022/06/06 01:31:50;;;;;;;1999.90;999.90;;;16.70;99.90;;;;;;4964121;28;20122;-77
2022/06/06 01:34:25;;;;;;;1999.90;999.90;;;16.70;99.90;;;;;;4971595;28;20031;-77
2022/06/06 01:36:54;;;;;;;1999.90;999.90;;;16.70;99.90;;;;;;4975021;28;20022;-76
2022/06/06 01:39:21;;;;;;;1999.90;999.90;;;16.70;99.90;;;;;;4963007;28;20039;-77
2022/06/06 01:41:57;;;;;;;1999.90;999.90;;;16.70;99.90;;;;;;4945463;28;20038;-77
2022/06/06 01:44:46;;;;;;;1999.90;999.90;;;16.70;99.90;;;;;;4967633;28;20478;-77
2022/06/06 01:47:18;;;;;;;1999.90;999.90;;;16.70;99.90;;;;;;4965880;28;20434;-77
2022/06/06 01:49:44;;;;;;;1999.90;999.90;;;16.70;99.90;;;;;;4974671;28;20027;-77
2022/06/06 01:52:13;;;;;;;1999.90;999.90;;;16.70;99.90;;;;;;4974914;28;20027;-77
2022/06/06 01:54:40;;;;;;;1999.90;999.90;;;16.70;99.90;;;;;;4974424;28;20042;-76
2022/06/06 01:57:09;;;;;;;1999.90;999.90;;;16.70;99.90;;;;;;4973349;28;20027;-77
2022/06/06 01:59:35;;;;;;;1999.90;999.90;;;16.60;99.90;;;;;;4969394;28;20482;-77
2022/06/06 02:02:00;;;;;;;1999.90;999.90;;;16.70;99.90;;;;;;4974675;28;20023;-77
2022/06/06 02:04:26;;;;;;;1999.90;999.90;;;16.70;99.90;;;;;;4970818;28;20077;-77
2022/06/06 02:06:52;;;;;;;1999.90;999.90;;;16.70;99.90;;;;;;4974553;28;20406;-77
2022/06/06 02:09:18;;;;;;;1999.90;999.90;;;16.70;99.90;;;;;;4974550;28;20023;-77
2022/06/06 02:11:43;;;;;;;1999.90;999.90;;;16.70;99.90;;;;;;4974553;28;20045;-77
2022/06/06 02:14:09;;;;;;;1999.90;999.90;;;16.70;99.90;;;;;;4967767;28;20118;-76
2022/06/06 02:16:36;;;;;;;1999.90;999.90;;;16.70;99.90;;;;;;4971351;28;20031;-77
2022/06/06 02:19:02;;;;;;;1999.90;999.90;;;16.60;99.90;;;;;;4974412;28;20022;-77
2022/06/06 02:21:28;;;;;;;1999.90;999.90;;;16.60;99.90;;;;;;4973592;28;20035;-77
2022/06/06 02:23:54;;;;;;;1999.90;999.90;;;16.60;99.90;;;;;;4963737;28;20062;-77
2022/06/06 02:26:19;;;;;;;1999.90;999.90;;;16.60;99.90;;;;;;4962049;28;20402;-77
2022/06/06 02:28:45;;;;;;;1999.90;999.90;;;16.60;99.90;;;;;;4974381;28;20034;-77
2022/06/06 02:31:11;;;;;;;1999.90;999.90;;;16.60;99.90;;;;;;4969553;28;20030;-77
2022/06/06 02:33:37;;;;;;;1999.90;999.90;;;16.60;99.90;;;;;;4974134;28;20031;-77
2022/06/06 02:36:03;;;;;;;1999.90;999.90;;;16.60;99.90;;;;;;4974124;28;20019;-77
2022/06/06 02:38:30;;;;;;;1999.90;999.90;;;16.60;99.90;;;;;;4964721;28;20110;-77
2022/06/06 02:41:07;;;;;;;1999.90;999.90;;;16.60;99.90;;;;;;4965337;28;20032;-76
2022/06/06 02:43:35;;;;;;;1999.90;999.90;;;16.70;99.90;;;;;;4945652;28;20053;-76
2022/06/06 02:46:03;;;;;;;1999.90;999.90;;;16.60;99.90;;;;;;4968572;28;20055;-77
2022/06/06 02:48:30;;;;;;;1999.90;999.90;;;16.70;99.90;;;;;;4953620;28;20458;-76
2022/06/06 02:50:56;;;;;;;1999.90;999.90;;;16.70;99.90;;;;;;4973974;28;20023;-77
2022/06/06 02:53:22;;;;;;;1999.90;999.90;;;16.70;99.90;;;;;;4973976;28;20027;-77
2022/06/06 02:55:55;;;;;;;1999.90;999.90;;;16.70;99.90;;;;;;4973539;28;20041;-77
2022/06/06 02:58:23;;;;;;;1999.90;999.90;;;16.70;99.90;;;;;;4964687;28;20027;-77
2022/06/06 03:00:49;;;;;;;1999.90;999.90;;;16.70;99.90;;;;;;4965119;28;20574;-77
2022/06/06 03:03:15;;;;;;;1999.90;999.90;;;16.70;99.90;;;;;;4973739;28;20113;-77
2022/06/06 03:06:05;;;;;;;1999.90;999.90;;;16.70;99.90;;;;;;4973924;28;20034;-77
2022/06/06 03:09:08;;;;;;;1999.90;999.90;;;16.70;99.90;;;;;;4973855;28;20110;-77
2022/06/06 03:11:56;;;;;;;1999.90;999.90;;;16.60;99.90;;;;;;4960644;28;20113;-77
2022/06/06 03:14:46;;;;;;;1999.90;999.90;;;16.60;99.90;;;;;;4965485;28;20035;-77
2022/06/06 03:20:51;;;;;;;1999.90;999.90;;;16.60;99.90;;;;;;4973399;28;20442;-76
2022/06/06 03:23:24;;;;;;;1999.90;999.90;;;16.60;99.90;;;;;;4957998;28;20050;-77
2022/06/06 03:25:56;;;;;;;;;;;16.60;99.90;;;;;;4958764;28;20109;-77
2022/06/06 03:28:39;;;;;;;1999.90;999.90;;;16.60;99.90;;;;;;4975001;28;19985;-77
2022/06/06 03:31:14;;;;;;;;;;;16.60;99.90;;;;;;4975522;28;20033;-76
2022/06/06 03:33:44;;;;;;;1999.90;999.90;;;16.60;99.90;;;;;;4977625;28;19928;-77
2022/06/06 03:36:22;;;;;;;1999.90;999.90;;;16.60;99.90;;;;;;4977491;28;20019;-77
2022/06/06 03:39:09;;;;;;;1999.90;999.90;;;16.50;99.90;;;;;;4965779;28;20508;-74
2022/06/06 03:41:36;;;;;;;1999.90;999.90;;;16.60;99.90;;;;;;4965235;28;20031;-77
2022/06/06 03:44:26;;;;;;;1999.90;999.90;;;16.50;99.90;;;;;;4967254;28;20077;-77
2022/06/06 03:47:03;;;;;;;1999.90;999.90;;;16.50;99.90;;;;;;4967493;28;20039;-77
2022/06/06 03:49:58;;;;;;;1999.90;999.90;;;16.50;99.90;;;;;;4977159;28;20027;-77
2022/06/06 03:53:02;;;;;;;1999.90;999.90;;;16.50;99.90;;;;;;4934110;28;20501;-77
2022/06/06 03:55:52;;;;;;;1999.90;999.90;;;16.50;99.90;;;;;;4973728;28;20047;-77
2022/06/06 03:58:21;;;;;;;1999.90;999.90;;;16.50;99.90;;;;;;4966837;28;20499;-77
2022/06/06 04:00:47;;;;;;;1999.90;999.90;;;16.40;99.90;;;;;;4976698;28;20031;-77
2022/06/06 04:03:15;;;;;;;1999.90;999.90;;;16.50;99.90;;;;;;4977275;28;20027;-77
2022/06/06 04:05:40;;;;;;;1999.90;999.90;;;16.40;99.90;;;;;;4976924;28;20505;-77
2022/06/06 04:08:08;;;;;;;1999.90;999.90;;;16.40;99.90;;;;;;4973082;28;20063;-77
2022/06/06 04:11:03;;;;;;;1999.90;999.90;;;16.30;99.90;;;;;;4976589;28;20034;-77
2022/06/06 04:14:00;;;;;;;1999.90;999.90;;;16.30;99.90;;;;;;4928962;28;20122;-77
2022/06/06 04:16:51;;;;;;;1999.90;999.90;;;16.20;99.90;;;;;;4975333;28;20455;-77
2022/06/06 04:20:14;;;;;;;1999.90;999.90;;;16.20;99.90;;;;;;4976878;28;20109;-77
2022/06/06 04:22:48;;;;;;;1999.90;999.90;;;16.10;99.90;;;;;;4868286;29;20093;-77
2022/06/06 04:25:33;;;;;;;1999.90;999.90;;;16.10;99.90;;;;;;4871679;29;20144;-77
2022/06/06 04:28:34;;;;;;;1999.90;999.90;;;16.10;99.90;;;;;;4943144;28;20046;-77
2022/06/06 04:31:25;;;;;;;1999.90;999.90;;;16.10;99.90;;;;;;4938950;28;20070;-77
2022/06/06 04:34:07;;;;;;;1999.90;999.90;;;16.10;99.90;;;;;;4974833;28;20031;-77
2022/06/06 04:36:56;;;;;;;1999.90;999.90;;;16.10;99.90;;;;;;4976559;28;20482;-77
2022/06/06 04:39:55;;;;;;;1999.90;999.90;;;16.10;99.90;;;;;;4964656;28;20023;-77
2022/06/06 04:42:36;;;;;;;1999.90;999.90;;;16.10;99.90;;;;;;4962521;28;20038;-77
2022/06/06 04:45:25;;;;;;;1999.90;999.90;;;16.20;99.90;;;;;;4971151;28;20023;-77
2022/06/06 04:47:50;;;;;;;1999.90;999.90;;;16.20;99.90;;;;;;4963386;28;20033;-77
2022/06/06 04:50:19;;;;;;;1999.90;999.90;;;16.30;99.90;;;;;;4976152;28;20026;-77
2022/06/06 04:52:55;;;;;;;1999.90;999.90;;;16.30;99.90;;;;;;4976469;28;20034;-77
2022/06/06 04:55:23;;;;;;;1999.90;999.90;;;16.30;99.90;;;;;;4976060;28;20026;-77
2022/06/06 04:57:53;;;;;;;1999.90;999.90;;;16.40;99.90;;;;;;4963387;28;20058;-77
2022/06/06 05:00:20;;;;;;;1999.90;999.90;;;16.30;99.90;;;;;;4975262;28;20027;-77
2022/06/06 05:02:46;;;;;;;1999.90;999.90;;;16.30;99.90;;;;;;4965993;28;20027;-77
2022/06/06 05:05:12;;;;;;;1999.90;999.90;;;16.30;99.90;;;;;;4976027;28;20027;-77
2022/06/06 05:08:01;;;;;;;1999.90;999.90;;;16.20;99.90;;;;;;4972687;28;20082;-77
2022/06/06 05:10:33;;;;;;;1999.90;999.90;;;16.20;99.90;;;;;;4975942;28;20134;-77
2022/06/06 05:13:07;;;;;;;1999.90;999.90;;;16.20;99.90;;;;;;4972008;28;20031;-77
2022/06/06 05:15:53;;;;;;;1999.90;999.90;;;16.20;99.90;;;;;;4970455;28;20082;-77
2022/06/06 05:18:41;;;;;;;1999.90;999.90;;;16.30;99.90;;;;;;4972622;28;20030;-77
2022/06/06 05:21:21;;;;;;;1999.90;999.90;;;16.30;99.90;;;;;;4970808;28;20490;-77
2022/06/06 05:23:55;;;;;;;1999.90;999.90;;;16.30;99.90;;;;;;4958454;28;20052;-77
2022/06/06 05:26:33;;;;;;;1999.90;999.90;;;16.20;99.90;;;;;;4972007;28;20123;-77
2022/06/06 05:29:36;;;;;;;1999.90;999.90;;;16.30;99.90;;;;;;4973037;28;20569;-77
2022/06/06 05:32:16;;;;;;;1999.90;999.90;;;16.30;99.90;;;;;;4960765;28;20409;-77
2022/06/06 05:34:51;;;;;;;1999.90;999.90;;;16.30;99.90;;;;;;4975518;28;20478;-77
2022/06/06 05:37:26;;;;;;;1999.90;999.90;;;16.30;99.90;;;;;;4955623;28;20035;-77
2022/06/06 05:39:52;;;;;;;1999.90;999.90;;;16.30;99.90;;;;;;4960094;28;20089;-77
2022/06/06 05:42:35;;;;;;;1999.90;999.90;;;16.30;99.90;;;;;;4962356;28;20098;-77
2022/06/06 05:45:13;;;;;;;1999.90;999.90;;;16.40;99.90;;;;;;4964336;28;20556;-77
2022/06/06 05:48:11;;;;;;;1999.90;999.90;;;16.30;99.90;;;;;;4965250;28;20757;-77
2022/06/06 05:50:57;;;;;;;1999.90;999.90;;;16.20;99.90;;;;;;4890490;28;20137;-77
2022/06/06 05:54:03;;;;;;;1999.90;999.90;;;16.30;99.90;;;;;;4975342;28;20035;-77
2022/06/06 05:56:53;;;;;;;1999.90;999.90;;;16.20;99.90;;;;;;4961789;28;20050;-77
2022/06/06 05:59:44;;;;;;;1999.90;999.90;;;16.20;99.90;;;;;;4938600;29;20414;-77
2022/06/06 06:02:28;;;;;;;1999.90;999.90;;;16.30;99.90;;;;;;4973197;28;20418;-73
2022/06/06 06:05:00;;;;;;;1999.90;999.90;;;16.50;99.90;;;;;;4964358;28;20034;-77
2022/06/06 06:07:38;;;;;;;1999.90;999.90;;;16.70;99.90;;;;;;4974898;28;20027;-77
2022/06/06 06:10:14;;;;;;;1999.90;999.90;;;16.80;99.90;;;;;;4957057;28;20030;-77
2022/06/06 06:13:05;;;;;;;1999.90;999.90;;;17.00;99.90;;;;;;4971621;28;20023;-77
2022/06/06 06:15:42;;;;;;;1999.90;999.90;;;17.10;99.90;;;;;;4963382;28;20034;-77
2022/06/06 06:18:17;;;;;;;1999.90;999.90;;;17.30;99.90;;;;;;4974747;28;20105;-77
2022/06/06 06:20:53;;;;;;;1999.90;999.90;;;17.30;99.90;;;;;;4974198;28;20027;-77
2022/06/06 06:23:24;;;;;;;1999.90;999.90;;;17.40;99.90;;;;;;4958536;28;20051;-77
2022/06/06 06:25:51;;;;;;;1999.90;999.90;;;17.30;99.90;;;;;;4958342;28;20023;-77
2022/06/06 06:28:17;;;;;;;1999.90;999.90;;;17.30;99.90;;;;;;4974513;28;20027;-77
2022/06/06 06:31:03;;;;;;;1999.90;999.90;;;17.30;99.90;;;;;;4974164;28;20097;-77
2022/06/06 06:33:32;;;;;;;1999.90;999.90;;;17.30;99.90;;;;;;4972164;28;20105;-77
2022/06/06 06:36:32;;;;;;;1999.90;999.90;;;17.40;99.90;;;;;;4974140;28;20023;-77
2022/06/06 06:39:19;;;;;;;1999.90;999.90;;;17.40;99.90;;;;;;4962807;28;20031;-77
2022/06/06 06:42:06;;;;;;;1999.90;999.90;;;17.60;99.90;;;;;;4961147;28;20071;-77
2022/06/06 06:44:43;;;;;;;1999.90;999.90;;;17.90;99.90;;;;;;4957017;28;20023;-77
2022/06/06 06:47:18;;;;;;;1999.90;999.90;;;18.00;99.90;;;;;;4964460;28;20387;-77
2022/06/06 06:49:50;;;;;;;1999.90;999.90;;;17.90;99.90;;;;;;4974285;28;20074;-76
2022/06/06 06:52:45;;;;;;;1999.90;999.90;;;17.70;99.90;;;;;;4973884;28;20023;-74
2022/06/06 06:55:20;;;;;;;1999.90;999.90;;;17.40;99.90;;;;;;4973215;28;20046;-77
2022/06/06 06:58:10;;;;;;;1999.90;999.90;;;17.30;99.90;;;;;;4967078;28;20078;-77
2022/06/06 07:00:59;;;;;;;1999.90;999.90;;;17.20;99.90;;;;;;4973668;28;20062;-77
2022/06/06 07:10:04;;;;;;;1999.90;999.90;;;18.00;99.90;;;;;;4972147;28;20034;-77
2022/06/06 07:12:54;;;;;;;1999.90;999.90;;;17.90;99.90;;;;;;4972012;28;20459;-77
2022/06/06 07:15:26;;;;;;;1999.90;999.90;;;18.00;99.90;;;;;;4953640;28;20089;-77
2022/06/06 07:17:58;;;;;;;1999.90;999.90;;;18.30;99.90;;;;;;4973697;28;20035;-77
2022/06/06 07:20:26;;;;;;;1999.90;999.90;;;18.70;99.90;;;;;;4973327;28;20023;-77
2022/06/06 07:23:05;;;;;;;1999.90;999.90;;;18.60;99.90;;;;;;4961532;28;20047;-77
2022/06/06 07:25:47;;;;;;;1999.90;999.90;;;18.90;99.90;;;;;;4966758;28;20514;-77
2022/06/06 07:28:18;;;;;;;1999.90;999.90;;;19.30;99.90;;;;;;4963618;28;20490;-77
2022/06/06 07:31:05;;;;;;;1999.90;999.90;;;19.50;99.90;;;;;;4973525;28;20137;-77
2022/06/06 07:33:51;;;;;;;1999.90;999.90;;;19.50;99.90;;;;;;4972024;28;20418;-77
2022/06/06 07:36:37;;;;;;;1999.90;999.90;;;19.50;99.90;;;;;;4972934;28;20553;-77
2022/06/06 07:39:29;;;;;;;1999.90;999.90;;;19.30;99.90;;;;;;4961595;28;20023;-77
2022/06/06 07:42:10;;;;;;;1999.90;999.90;;;19.20;99.90;;;;;;4953719;28;20027;-77
2022/06/06 07:44:56;;;;;;;1999.90;999.90;;;19.20;99.90;;;;;;4965506;28;20514;-77
2022/06/06 07:47:59;;;;;;;1999.90;999.90;;;19.20;99.90;;;;;;4963253;28;20030;-77
2022/06/06 07:50:36;;;;;;;1999.90;999.90;;;20.90;99.90;;;;;;4970696;28;20031;-77
2022/06/06 07:53:19;;;;;;;1999.90;999.90;;;22.80;99.90;;;;;;4966741;28;20110;-77
2022/06/06 07:56:17;;;;;;;1999.90;999.90;;;23.00;99.90;;;;;;4973463;28;20015;-77
2022/06/06 07:58:58;;;;;;;1999.90;999.90;;;22.90;99.60;;;;;;4932337;28;20417;-77
2022/06/06 08:01:48;;;;;;;1999.90;999.90;;;24.00;99.10;;;;;;4973284;28;20085;-77
2022/06/06 08:04:16;;;;;;;1999.90;999.90;;;24.40;97.90;;;;;;4973191;28;20122;-77
2022/06/06 08:06:51;;;;;;;1999.90;999.90;;;23.50;98.20;;;;;;4972147;28;20023;-77
2022/06/06 08:09:32;;;;;;;1999.90;999.90;;;22.70;99.90;;;;;;4973592;28;20382;-77
2022/06/06 08:12:14;;;;;;;1999.90;999.90;;;22.10;99.20;;;;;;4973282;28;20474;-77
2022/06/06 08:14:39;;;;;;;1999.90;999.90;;;21.20;99.90;;;;;;4939257;28;20036;-77
2022/06/06 08:17:29;;;;;;;1999.90;999.90;;;20.50;99.90;;;;;;4976740;28;20394;-77
2022/06/06 08:19:55;;;;;;;1999.90;999.90;;;20.40;99.90;;;;;;4962704;28;20034;-77
2022/06/06 08:22:24;;;;;;;1999.90;999.90;;;20.10;99.90;;;;;;4966182;28;20038;-77
2022/06/06 08:24:53;;;;;;;1999.90;999.90;;;20.10;99.90;;;;;;4962736;28;20493;-77
2022/06/06 08:27:19;;;;;;;1999.90;999.90;;;20.00;99.90;;;;;;4963716;28;20371;-77
2022/06/06 08:29:46;;;;;;;1999.90;999.90;;;20.10;99.90;;;;;;4970600;28;20074;-77
2022/06/06 08:32:13;;;;;;;1999.90;999.90;;;20.60;99.90;;;;;;4965231;28;20039;-77
2022/06/06 08:34:39;;;;;;;1999.90;999.90;;;21.20;99.90;;;;;;4976398;28;20031;-77
2022/06/06 08:37:14;;;;;;;1999.90;999.90;;;21.20;99.90;;;;;;4958262;28;20031;-77
2022/06/06 08:39:58;;;;;;;1999.90;999.90;;;21.20;99.90;;;;;;4964936;28;20019;-77
2022/06/06 08:42:48;;;;;;;1999.90;999.90;;;20.60;99.90;;;;;;4973281;28;20027;-77
2022/06/06 08:45:49;;;;;;;1999.90;999.90;;;20.50;99.90;;;;;;4971713;28;20023;-77
2022/06/06 08:48:33;;;;;;;1999.90;999.90;;;20.40;99.90;;;;;;4969944;28;20031;-77
2022/06/06 08:51:04;;;;;;;1999.90;999.90;;;20.60;99.90;;;;;;4976157;28;20023;-77
2022/06/06 08:54:04;;;;;;;1999.90;999.90;;;20.30;99.90;;;;;;4964647;28;20497;-77
2022/06/06 08:56:50;;;;;;;1999.90;999.90;;;20.70;99.90;;;;;;4976020;28;20026;-77
2022/06/06 08:59:15;;;;;;;1999.90;999.90;;;21.00;99.90;;;;;;4966733;28;20022;-77
2022/06/06 09:01:55;;;;;;;1999.90;999.90;;;21.30;99.90;;;;;;4958122;28;20093;-76
2022/06/06 09:04:24;;;;;;;1999.90;999.90;;;20.70;99.90;;;;;;4975952;28;20035;-77
2022/06/06 09:07:23;;;;;;;1999.90;999.90;;;20.30;99.90;;;;;;4975617;28;20034;-76
2022/06/06 09:10:21;;;;;;;1999.90;999.90;;;20.10;99.90;;;;;;4975580;28;20114;-77
2022/06/06 09:13:10;;;;;;;1999.90;999.90;;;20.10;99.90;;;;;;4972101;28;20040;-77
2022/06/06 09:15:41;;;;;;;1999.90;999.90;;;20.40;99.90;;;;;;4960266;28;20097;-76
2022/06/06 09:18:07;;;;;;;1999.90;999.90;;;20.60;99.90;;;;;;4975722;28;20019;-76
2022/06/06 09:20:55;;;;;;;1999.90;999.90;;;20.40;99.90;;;;;;4975172;28;20110;-76
2022/06/06 09:23:44;;;;;;;1999.90;999.90;;;20.10;99.90;;;;;;4959420;28;20517;-76
2022/06/06 09:26:45;;;;;;;1999.90;999.90;;;19.70;99.90;;;;;;4954932;28;20051;-77
2022/06/06 09:29:48;;;;;;;1999.90;999.90;;;19.60;99.90;;;;;;4965316;28;20030;-76
2022/06/06 09:32:13;;;;;;;1999.90;999.90;;;19.60;99.90;;;;;;4973820;28;20027;-77
2022/06/06 09:35:07;;;;;;;1999.90;999.90;;;19.70;99.90;;;;;;4975374;28;20094;-76
2022/06/06 09:37:40;;;;;;;;;;;19.70;99.90;;;;;;4973301;28;20450;-77
2022/06/06 09:40:11;;;;;;;1999.90;999.90;;;19.80;99.90;;;;;;4966387;28;19906;-77
2022/06/06 09:42:58;;;;;;;1999.90;999.90;;;19.40;99.90;;;;;;4961726;28;20026;-77
2022/06/06 09:45:29;;;;;;;1999.90;999.90;;;19.20;99.90;;;;;;4973427;28;20023;-77
2022/06/06 09:48:19;;;;;;;1999.90;999.90;;;19.40;99.90;;;;;;4966298;28;20069;-77
2022/06/06 09:51:36;;;;;;;1999.90;999.90;;;19.40;99.90;;;;;;4957593;28;20490;-76
2022/06/06 10:00:30;;;;;;;1999.90;999.90;;;18.90;99.90;;;;;;4970365;28;20454;-76
2022/06/06 10:03:32;;;;;;;1999.90;999.90;;;18.80;99.90;;;;;;4975044;28;20027;-76
2022/06/06 10:06:30;;;;;;;1999.90;999.90;;;18.60;99.90;;;;;;4974818;28;20741;-76
2022/06/06 10:09:33;;;;;;;1999.90;999.90;;;18.30;99.90;;;;;;4884543;29;20089;-76
2022/06/06 10:12:10;;;;;;;1999.90;999.90;;;17.90;99.90;;;;;;4955596;28;20070;-76
2022/06/06 10:14:57;;;;;;;1999.90;999.90;;;17.70;99.90;;;;;;4966228;28;20035;-76
2022/06/06 10:17:56;;;;;;;1999.90;999.90;;;17.40;99.90;;;;;;4974759;28;20023;-76
2022/06/06 10:20:31;;;;;;;1999.90;999.90;;;17.20;99.90;;;;;;4974191;28;20053;-76
2022/06/06 10:23:11;;;;;;;1999.90;999.90;;;17.00;99.90;;;;;;4958206;28;20019;-76
2022/06/06 10:26:19;;;;;;;1999.90;999.90;;;17.00;99.90;;;;;;4966201;28;20146;-76
2022/06/06 10:29:22;;;;;;;1999.90;999.90;;;16.90;99.90;;;;;;4974235;28;20022;-76
2022/06/06 10:32:12;;;;;;;1999.90;999.90;;;17.00;99.90;;;;;;4974233;28;20466;-76
2022/06/06 10:35:01;;;;;;;1999.90;999.90;;;17.00;99.90;;;;;;4966279;28;20023;-76
2022/06/06 10:37:58;;;;;;;1999.90;999.90;;;16.90;99.90;;;;;;4961951;28;20027;-76
2022/06/06 10:41:02;;;;;;;1999.90;999.90;;;16.80;99.90;;;;;;4965106;28;20035;-76
2022/06/06 10:43:58;;;;;;;1999.90;999.90;;;16.70;99.90;;;;;;4966189;28;20054;-76
2022/06/06 10:46:34;;;;;;;1999.90;999.90;;;16.50;99.90;;;;;;4965469;28;20490;-76
2022/06/06 10:49:07;;;;;;;1999.90;999.90;;;16.50;99.90;;;;;;4973986;28;20055;-76
2022/06/06 10:51:42;;;;;;;1999.90;999.90;;;16.40;99.90;;;;;;4973861;28;20029;-76
2022/06/06 10:54:19;;;;;;;1999.90;999.90;;;16.30;99.90;;;;;;4974311;28;20023;-76
2022/06/06 10:57:16;;;;;;;1999.90;999.90;;;16.30;99.90;;;;;;4973963;28;20019;-75
2022/06/06 11:00:05;;;;;;;1999.90;999.90;;;16.40;99.90;;;;;;4968269;28;20027;-76
2022/06/06 11:02:46;;;;;;;1999.90;999.90;;;16.50;99.90;;;;;;4973520;28;20026;-76
2022/06/06 11:05:17;;;;;;;1999.90;999.90;;;16.40;99.90;;;;;;4973875;28;20414;-75
2022/06/06 11:08:07;;;;;;;1999.90;999.90;;;16.40;99.90;;;;;;4973798;28;20034;-76
2022/06/06 11:10:32;;;;;;;1999.90;999.90;;;16.30;99.90;;;;;;4973745;28;20030;-76
2022/06/06 11:13:16;;;;;;;1999.90;999.90;;;16.40;99.90;;;;;;4969106;28;20102;-76
2022/06/06 11:16:07;;;;;;;1999.90;999.90;;;16.30;99.90;;;;;;4968536;28;20066;-76
2022/06/06 11:18:45;;;;;;;1999.90;999.90;;;16.40;99.90;;;;;;4973590;28;20094;-76
2022/06/06 11:21:22;;;;;;;1999.90;999.90;;;16.50;99.90;;;;;;4968477;28;20035;-76
2022/06/06 11:24:10;;;;;;;1999.90;999.90;;;16.50;99.90;;;;;;4956916;28;20059;-76
2022/06/06 11:26:57;;;;;;;1999.90;999.90;;;16.60;99.90;;;;;;4962677;28;20487;-76
2022/06/06 11:29:29;;;;;;;1999.90;999.90;;;16.60;99.90;;;;;;4925697;28;20043;-76
2022/06/06 11:32:06;;;;;;;1999.90;999.90;;;16.70;99.90;;;;;;4973452;28;20058;-76
2022/06/06 11:34:53;;;;;;;1999.90;999.90;;;16.60;99.90;;;;;;4957724;28;20397;-76
2022/06/06 11:37:37;;;;;;;1999.90;999.90;;;16.60;99.90;;;;;;4973309;28;20382;-76
2022/06/06 11:40:27;;;;;;;1999.90;999.90;;;16.50;99.90;;;;;;4965231;28;20474;-76
2022/06/06 11:43:12;;;;;;;1999.90;999.90;;;16.60;99.90;;;;;;4949282;28;20102;-76
2022/06/06 11:46:08;;;;;;;1999.90;999.90;;;16.50;99.90;;;;;;4970228;28;20117;-76
2022/06/06 11:49:08;;;;;;;1999.90;999.90;;;16.60;99.90;;;;;;4968183;28;20391;-76
2022/06/06 11:51:48;;;;;;;1999.90;999.90;;;16.70;99.90;;;;;;4976923;28;20055;-76
2022/06/06 11:54:51;;;;;;;1999.90;999.90;;;16.50;99.90;;;;;;4977248;28;20023;-76
2022/06/06 11:57:29;;;;;;;1999.90;999.90;;;16.60;99.90;;;;;;4934802;28;20098;-76
2022/06/06 12:00:33;;;;;;;1999.90;999.90;;;16.70;99.90;;;;;;4971678;28;20023;-76
2022/06/06 12:03:20;;;;;;;1999.90;999.90;;;16.70;99.90;;;;;;4977098;28;20019;-76
2022/06/06 12:06:00;;;;;;;1999.90;999.90;;;16.60;99.90;;;;;;4977005;28;20019;-76
2022/06/06 12:09:06;;;;;;;1999.90;999.90;;;16.60;99.90;;;;;;4976756;28;20174;-76
2022/06/06 12:11:37;;;;;;;1999.90;999.90;;;16.80;99.90;;;;;;4965219;28;20019;-76
2022/06/06 12:14:36;;;;;;;1999.90;999.90;;;16.90;99.90;;;;;;4970501;28;20035;-76
2022/06/06 12:17:33;;;;;;;1999.90;999.90;;;17.10;99.90;;;;;;4959098;28;20486;-76
2022/06/06 12:20:17;;;;;;;1999.90;999.90;;;17.40;99.90;;;;;;4976920;28;20026;-76
2022/06/06 12:22:59;;;;;;;1999.90;999.90;;;17.50;99.90;;;;;;4965099;28;20117;-76
2022/06/06 12:25:27;;;;;;;1999.90;999.90;;;17.30;99.90;;;;;;4928982;29;20058;-76
2022/06/06 12:28:43;;;;;;;1999.90;999.90;;;17.30;99.90;;;;;;4937429;29;20031;-76
2022/06/06 12:31:12;;;;;;;1999.90;999.90;;;17.10;99.90;;;;;;4905279;29;20400;-76
2022/06/06 12:34:10;;;;;;;1999.90;999.90;;;17.00;99.90;;;;;;4930370;29;20496;-76
2022/06/06 12:37:08;;;;;;;1999.90;999.90;;;17.10;99.90;;;;;;4937980;29;20399;-76
2022/06/06 12:40:05;;;;;;;1999.90;999.90;;;17.10;99.90;;;;;;4925961;29;20089;-76
2022/06/06 12:42:49;;;;;;;1999.90;999.90;;;17.40;99.90;;;;;;4936167;29;20032;-76
2022/06/06 12:45:29;;;;;;;1999.90;999.90;;;18.00;99.90;;;;;;4933100;29;20024;-76
2022/06/06 12:47:58;;;;;;;1999.90;999.90;;;18.80;99.90;;;;;;4928153;29;20034;-76
2022/06/06 12:50:42;;;;;;;1999.90;999.90;;;19.30;99.90;;;;;;4937388;29;20114;-76
2022/06/06 12:53:33;;;;;;;1999.90;999.90;;;19.60;99.90;;;;;;4925200;29;20028;-76
2022/06/06 12:56:38;;;;;;;1999.90;999.90;;;18.80;99.90;;;;;;4918740;29;20534;-76
2022/06/06 12:59:13;;;;;;;1999.90;999.90;;;18.30;99.90;;;;;;4927973;29;20020;-76
2022/06/06 13:01:55;;;;;;;1999.90;999.90;;;18.10;99.90;;;;;;4934448;29;20052;-76
2022/06/06 13:04:58;;;;;;;1999.90;999.90;;;18.00;99.90;;;;;;4930261;29;20034;-76
2022/06/06 13:08:00;;;;;;;1999.90;999.90;;;18.20;99.90;;;;;;4932883;29;20044;-76
2022/06/06 13:10:44;;;;;;;1999.90;999.90;;;18.50;99.90;;;;;;4932598;29;20175;-76
2022/06/06 13:13:28;;;;;;;1999.90;999.90;;;18.80;99.90;;;;;;4932495;29;20031;-77
2022/06/06 13:16:08;;;;;;;1999.90;999.90;;;18.90;99.90;;;;;;4934954;29;20039;-76
2022/06/06 13:19:13;;;;;;;1999.90;999.90;;;19.10;99.90;;;;;;4935962;29;20127;-76
2022/06/06 13:21:44;;;;;;;1999.90;999.90;;;19.70;99.90;;;;;;4922643;29;20373;-76
2022/06/06 13:24:45;;;;;;;1999.90;999.90;;;20.20;99.90;;;;;;4920161;29;20377;-76